sensor_id;sensor_type;location;lat;lon;timestamp;pressure;altitude;pressure_sealevel;temperature
18474;BMP180;30265;52.408;13.500;2023-06-14T00:10:37;102144.00;;;18.70
18474;BMP180;30265;52.408;13.500;2023-06-14T00:21:00;102151.00;;;18.60
18474;BMP180;30265;52.408;13.500;2023-06-14T00:31:24;102148.00;;;18.60
18474;BMP180;30265;52.408;13.500;2023-06-14T00:41:47;102148.00;;;18.50
18474;BMP180;30265;52.408;13.500;2023-06-14T00:52:15;102147.00;;;18.40
18474;BMP180;30265;52.408;13.500;2023-06-14T01:02:38;102140.00;;;18.30
18474;BMP180;30265;52.408;13.500;2023-06-14T01:13:08;102140.00;;;18.20
18474;BMP180;30265;52.408;13.500;2023-06-14T01:23:33;102146.00;;;18.20
18474;BMP180;30265;52.408;13.500;2023-06-14T01:33:55;102147.00;;;18.00
18474;BMP180;30265;52.408;13.500;2023-06-14T01:44:18;102148.00;;;17.90
18474;BMP180;30265;52.408;13.500;2023-06-14T01:54:41;102146.00;;;17.80
18474;BMP180;30265;52.408;13.500;2023-06-14T02:05:05;102162.00;;;17.60
18474;BMP180;30265;52.408;13.500;2023-06-14T02:15:26;102156.00;;;17.60
18474;BMP180;30265;52.408;13.500;2023-06-14T02:25:55;102158.00;;;17.70
18474;BMP180;30265;52.408;13.500;2023-06-14T02:36:17;102172.00;;;17.50
18474;BMP180;30265;52.408;13.500;2023-06-14T02:46:40;102166.00;;;17.50
18474;BMP180;30265;52.408;13.500;2023-06-14T02:57:04;102176.00;;;17.40
18474;BMP180;30265;52.408;13.500;2023-06-14T03:07:30;102161.00;;;17.40
18474;BMP180;30265;52.408;13.500;2023-06-14T03:17:53;102162.00;;;17.40
18474;BMP180;30265;52.408;13.500;2023-06-14T03:28:16;102164.00;;;17.50
18474;BMP180;30265;52.408;13.500;2023-06-14T03:38:38;102167.00;;;17.50
18474;BMP180;30265;52.408;13.500;2023-06-14T03:49:02;102182.00;;;17.60
18474;BMP180;30265;52.408;13.500;2023-06-14T03:59:24;102177.00;;;17.80
18474;BMP180;30265;52.408;13.500;2023-06-14T04:09:49;102174.00;;;18.90
18474;BMP180;30265;52.408;13.500;2023-06-14T04:20:11;102155.00;;;19.60
18474;BMP180;30265;52.408;13.500;2023-06-14T04:30:35;102141.00;;;20.10
18474;BMP180;30265;52.408;13.500;2023-06-14T04:40:59;102151.00;;;20.30
18474;BMP180;30265;52.408;13.500;2023-06-14T04:51:24;102135.00;;;21.30
18474;BMP180;30265;52.408;13.500;2023-06-14T05:01:50;102143.00;;;21.20
18474;BMP180;30265;52.408;13.500;2023-06-14T05:12:17;102151.00;;;20.60
18474;BMP180;30265;52.408;13.500;2023-06-14T05:22:39;102167.00;;;20.50
18474;BMP180;30265;52.408;13.500;2023-06-14T05:33:02;102168.00;;;20.40
18474;BMP180;30265;52.408;13.500;2023-06-14T05:43:24;102185.00;;;20.60
18474;BMP180;30265;52.408;13.500;2023-06-14T05:53:48;102191.00;;;20.40
18474;BMP180;30265;52.408;13.500;2023-06-14T06:04:10;102187.00;;;20.50
18474;BMP180;30265;52.408;13.500;2023-06-14T06:14:33;102196.00;;;20.40
18474;BMP180;30265;52.408;13.500;2023-06-14T06:24:55;102193.00;;;20.80
18474;BMP180;30265;52.408;13.500;2023-06-14T06:35:17;102188.00;;;20.80
18474;BMP180;30265;52.408;13.500;2023-06-14T06:45:39;102191.00;;;20.80
18474;BMP180;30265;52.408;13.500;2023-06-14T06:56:02;102191.00;;;21.30
18474;BMP180;30265;52.408;13.500;2023-06-14T07:06:27;102176.00;;;22.10
18474;BMP180;30265;52.408;13.500;2023-06-14T07:16:57;102172.00;;;22.80
18474;BMP180;30265;52.408;13.500;2023-06-14T07:27:19;102197.00;;;22.80
18474;BMP180;30265;52.408;13.500;2023-06-14T07:37:42;102188.00;;;23.00
18474;BMP180;30265;52.408;13.500;2023-06-14T07:48:04;102194.00;;;22.90
18474;BMP180;30265;52.408;13.500;2023-06-14T07:58:28;102190.00;;;22.80
18474;BMP180;30265;52.408;13.500;2023-06-14T08:08:50;102174.00;;;23.50
18474;BMP180;30265;52.408;13.500;2023-06-14T08:19:13;102169.00;;;23.60
18474;BMP180;30265;52.408;13.500;2023-06-14T08:29:36;102172.00;;;23.60
18474;BMP180;30265;52.408;13.500;2023-06-14T08:40:02;102166.00;;;24.00
18474;BMP180;30265;52.408;13.500;2023-06-14T08:50:27;102167.00;;;24.50
18474;BMP180;30265;52.408;13.500;2023-06-14T09:00:53;102166.00;;;24.50
18474;BMP180;30265;52.408;13.500;2023-06-14T09:11:17;102158.00;;;25.00
18474;BMP180;30265;52.408;13.500;2023-06-14T09:21:40;102159.00;;;24.70
18474;BMP180;30265;52.408;13.500;2023-06-14T09:32:03;102167.00;;;24.60
18474;BMP180;30265;52.408;13.500;2023-06-14T09:42:26;102157.00;;;25.30
18474;BMP180;30265;52.408;13.500;2023-06-14T09:52:52;102160.00;;;25.80
18474;BMP180;30265;52.408;13.500;2023-06-14T10:03:21;102151.00;;;26.40
18474;BMP180;30265;52.408;13.500;2023-06-14T10:13:46;102151.00;;;25.50
18474;BMP180;30265;52.408;13.500;2023-06-14T10:24:13;102149.00;;;25.30
18474;BMP180;30265;52.408;13.500;2023-06-14T10:34:38;102151.00;;;25.40
18474;BMP180;30265;52.408;13.500;2023-06-14T10:45:01;102150.00;;;25.30
18474;BMP180;30265;52.408;13.500;2023-06-14T10:55:23;102135.00;;;25.90
18474;BMP180;30265;52.408;13.500;2023-06-14T11:05:53;102119.00;;;25.60
18474;BMP180;30265;52.408;13.500;2023-06-14T11:16:17;102102.00;;;26.30
18474;BMP180;30265;52.408;13.500;2023-06-14T11:26:40;102101.00;;;26.30
18474;BMP180;30265;52.408;13.500;2023-06-14T11:37:03;102068.00;;;27.30
18474;BMP180;30265;52.408;13.500;2023-06-14T11:47:32;102071.00;;;27.00
18474;BMP180;30265;52.408;13.500;2023-06-14T11:57:54;102036.00;;;28.30
18474;BMP180;30265;52.408;13.500;2023-06-14T12:08:18;102003.00;;;29.60
18474;BMP180;30265;52.408;13.500;2023-06-14T12:18:43;101997.00;;;29.90
18474;BMP180;30265;52.408;13.500;2023-06-14T12:29:07;102006.00;;;28.20
18474;BMP180;30265;52.408;13.500;2023-06-14T12:39:29;101985.00;;;29.40
18474;BMP180;30265;52.408;13.500;2023-06-14T12:49:52;101986.00;;;29.20
18474;BMP180;30265;52.408;13.500;2023-06-14T13:00:15;101966.00;;;30.30
18474;BMP180;30265;52.408;13.500;2023-06-14T13:10:39;101978.00;;;29.10
18474;BMP180;30265;52.408;13.500;2023-06-14T13:21:01;101924.00;;;31.80
18474;BMP180;30265;52.408;13.500;2023-06-14T13:31:25;101941.00;;;29.90
18474;BMP180;30265;52.408;13.500;2023-06-14T13:41:46;101915.00;;;31.60
18474;BMP180;30265;52.408;13.500;2023-06-14T13:52:10;101913.00;;;30.70
18474;BMP180;30265;52.408;13.500;2023-06-14T14:02:51;101935.00;;;30.20
18474;BMP180;30265;52.408;13.500;2023-06-14T14:13:34;101936.00;;;29.10
18474;BMP180;30265;52.408;13.500;2023-06-14T14:24:14;101942.00;;;28.80
18474;BMP180;30265;52.408;13.500;2023-06-14T14:34:55;101934.00;;;29.40
18474;BMP180;30265;52.408;13.500;2023-06-14T14:45:17;101924.00;;;29.10
18474;BMP180;30265;52.408;13.500;2023-06-14T14:55:40;101934.00;;;28.90
18474;BMP180;30265;52.408;13.500;2023-06-14T15:06:04;101877.00;;;32.20
18474;BMP180;30265;52.408;13.500;2023-06-14T15:16:28;101920.00;;;30.00
18474;BMP180;30265;52.408;13.500;2023-06-14T15:26:50;101926.00;;;29.20
18474;BMP180;30265;52.408;13.500;2023-06-14T15:37:13;101942.00;;;28.70
18474;BMP180;30265;52.408;13.500;2023-06-14T15:47:34;101937.00;;;28.60
18474;BMP180;30265;52.408;13.500;2023-06-14T15:57:58;101941.00;;;28.30
18474;BMP180;30265;52.408;13.500;2023-06-14T16:08:20;101954.00;;;27.80
18474;BMP180;30265;52.408;13.500;2023-06-14T16:19:01;101955.00;;;27.90
18474;BMP180;30265;52.408;13.500;2023-06-14T16:29:24;101955.00;;;27.50
18474;BMP180;30265;52.408;13.500;2023-06-14T16:39:48;101962.00;;;27.50
18474;BMP180;30265;52.408;13.500;2023-06-14T16:50:10;101969.00;;;27.50
18474;BMP180;30265;52.408;13.500;2023-06-14T17:00:34;101974.00;;;27.20
18474;BMP180;30265;52.408;13.500;2023-06-14T17:10:55;101984.00;;;27.10
18474;BMP180;30265;52.408;13.500;2023-06-14T17:21:18;101994.00;;;26.90
18474;BMP180;30265;52.408;13.500;2023-06-14T17:31:40;102006.00;;;26.60
18474;BMP180;30265;52.408;13.500;2023-06-14T17:42:04;102017.00;;;26.50
18474;BMP180;30265;52.408;13.500;2023-06-14T17:52:27;102020.00;;;26.50
18474;BMP180;30265;52.408;13.500;2023-06-14T18:02:50;102021.00;;;26.30
18474;BMP180;30265;52.408;13.500;2023-06-14T18:13:12;102029.00;;;26.20
18474;BMP180;30265;52.408;13.500;2023-06-14T18:23:36;102023.00;;;26.10
18474;BMP180;30265;52.408;13.500;2023-06-14T18:33:58;102018.00;;;26.10
18474;BMP180;30265;52.408;13.500;2023-06-14T18:44:30;102024.00;;;26.00
18474;BMP180;30265;52.408;13.500;2023-06-14T18:54:52;102035.00;;;25.90
18474;BMP180;30265;52.408;13.500;2023-06-14T19:05:15;102043.00;;;25.80
18474;BMP180;30265;52.408;13.500;2023-06-14T19:15:40;102037.00;;;25.70
18474;BMP180;30265;52.408;13.500;2023-06-14T19:26:03;102045.00;;;25.60
18474;BMP180;30265;52.408;13.500;2023-06-14T19:36:25;102040.00;;;25.50
18474;BMP180;30265;52.408;13.500;2023-06-14T19:46:48;102057.00;;;25.40
18474;BMP180;30265;52.408;13.500;2023-06-14T19:57:10;102051.00;;;25.30
18474;BMP180;30265;52.408;13.500;2023-06-14T20:07:33;102064.00;;;25.30
18474;BMP180;30265;52.408;13.500;2023-06-14T20:17:56;102061.00;;;25.20
18474;BMP180;30265;52.408;13.500;2023-06-14T20:28:19;102056.00;;;25.10
18474;BMP180;30265;52.408;13.500;2023-06-14T20:38:41;102070.00;;;25.00
18474;BMP180;30265;52.408;13.500;2023-06-14T20:49:04;102067.00;;;24.90
18474;BMP180;30265;52.408;13.500;2023-06-14T20:59:28;102067.00;;;24.90
18474;BMP180;30265;52.408;13.500;2023-06-14T21:09:52;102063.00;;;24.90
18474;BMP180;30265;52.408;13.500;2023-06-14T21:20:13;102070.00;;;24.80
18474;BMP180;30265;52.408;13.500;2023-06-14T21:30:37;102072.00;;;24.70
18474;BMP180;30265;52.408;13.500;2023-06-14T21:41:00;102069.00;;;24.60
18474;BMP180;30265;52.408;13.500;2023-06-14T21:51:23;102062.00;;;24.40
18474;BMP180;30265;52.408;13.500;2023-06-14T22:01:45;102057.00;;;24.30
18474;BMP180;30265;52.408;13.500;2023-06-14T22:12:09;102059.00;;;24.20
18474;BMP180;30265;52.408;13.500;2023-06-14T22:22:34;102056.00;;;24.10
18474;BMP180;30265;52.408;13.500;2023-06-14T22:32:59;102064.00;;;24.00
18474;BMP180;30265;52.408;13.500;2023-06-14T22:43:23;102061.00;;;24.00
18474;BMP180;30265;52.408;13.500;2023-06-14T22:53:47;102062.00;;;23.90
18474;BMP180;30265;52.408;13.500;2023-06-14T23:04:09;102061.00;;;23.80
18474;BMP180;30265;52.408;13.500;2023-06-14T23:14:34;102054.00;;;23.70
18474;BMP180;30265;52.408;13.500;2023-06-14T23:24:57;102047.00;;;23.50
18474;BMP180;30265;52.408;13.500;2023-06-14T23:35:20;102055.00;;;23.40
18474;BMP180;30265;52.408;13.500;2023-06-14T23:45:43;102046.00;;;23.00
18474;BMP180;30265;52.408;13.500;2023-06-14T23:56:07;102063.00;;;22.80
